Time,TemperatureF,DewpointF,PressureIn,WindDirection,WindDirectionDegrees,WindSpeedMPH,WindSpeedGustMPH,Humidity,HourlyPrecipIn,Conditions,Clouds,dailyrainin,SolarRadiationWatts/m^2,SoftwareType,DateUTC
2013-06-19 00:00:00,56.4,47.5,30.02,ENE,76,1.0,1.0,72,0.00,,,0.00,0,Wunderground v.1.15,2013-06-19 07:00:00,
2013-06-19 00:10:00,56.3,47.8,30.02,NNE,28,1.0,1.0,73,0.00,,,0.00,0,Wunderground v.1.15,2013-06-19 07:10:00,
2013-06-19 00:20:00,56.3,47.8,30.02,NNE,33,1.0,1.0,73,0.00,,,0.00,0,Wunderground v.1.15,2013-06-19 07:20:00,
2013-06-19 00:30:00,56.2,47.7,30.03,West,267,1.0,1.0,73,0.00,,,0.00,0,Wunderground v.1.15,2013-06-19 07:30:00,
2013-06-19 00:40:00,56.2,47.7,30.03,SW,217,0.0,0.0,73,0.00,,,0.00,0,Wunderground v.1.15,2013-06-19 07:40:00,
2013-06-19 00:50:00,56.0,47.5,30.03,ENE,62,0.0,1.0,73,0.00,,,0.00,0,Wunderground v.1.15,2013-06-19 07:50:00,
2013-06-19 01:00:00,55.9,47.4,30.03,SE,138,1.0,1.0,73,0.00,,,0.00,0,Wunderground v.1.15,2013-06-19 08:00:00,
2013-06-19 01:10:00,56.0,47.5,30.04,SE,142,0.0,0.0,73,0.00,,,0.00,0,Wunderground v.1.15,2013-06-19 08:10:00,
2013-06-19 01:20:00,55.9,47.4,30.04,SSE,147,1.0,1.0,73,0.00,,,0.00,0,Wunderground v.1.15,2013-06-19 08:20:00,
2013-06-19 01:30:00,55.8,46.9,30.04,SE,142,3.0,3.0,72,0.00,,,0.00,0,Wunderground v.1.15,2013-06-19 08:30:00,
2013-06-19 01:40:00,55.9,47.0,30.04,ESE,114,1.0,1.0,72,0.00,,,0.00,0,Wunderground v.1.15,2013-06-19 08:40:00,
2013-06-19 01:50:00,55.8,46.5,30.04,SSE,163,0.0,0.0,71,0.00,,,0.00,0,Wunderground v.1.15,2013-06-19 08:50:00,
2013-06-19 02:00:00,55.8,46.5,30.04,WSW,244,0.0,0.0,71,0.00,,,0.00,0,Wunderground v.1.15,2013-06-19 09:00:00,
2013-06-19 02:10:00,55.7,46.1,30.03,WNW,295,0.0,0.0,70,0.00,,,0.00,0,Wunderground v.1.15,2013-06-19 09:10:00,
2013-06-19 02:20:00,55.7,46.1,30.03,WNW,295,0.0,1.0,70,0.00,,,0.00,0,Wunderground v.1.15,2013-06-19 09:20:00,
2013-06-19 02:30:00,55.5,45.9,30.03,WNW,295,0.0,0.0,70,0.00,,,0.00,0,Wunderground v.1.15,2013-06-19 09:30:00,
2013-06-19 02:40:00,55.3,45.7,30.03,SW,217,0.0,0.0,70,0.00,,,0.00,0,Wunderground v.1.15,2013-06-19 09:40:00,
2013-06-19 02:50:00,55.1,45.5,30.03,West,267,1.0,1.0,70,0.00,,,0.00,0,Wunderground v.1.15,2013-06-19 09:50:00,
2013-06-19 03:00:00,54.8,45.2,30.03,WSW,255,0.0,1.0,70,0.00,,,0.00,0,Wunderground v.1.15,2013-06-19 10:00:00,
2013-06-19 03:10:00,54.7,44.7,30.04,West,268,0.0,0.0,69,0.00,,,0.00,0,Wunderground v.1.15,2013-06-19 10:10:00,
2013-06-19 03:20:00,54.6,44.6,30.04,West,269,0.0,0.0,69,0.00,,,0.00,0,Wunderground v.1.15,2013-06-19 10:20:00,
2013-06-19 03:30:00,54.5,44.5,30.04,West,268,0.0,0.0,69,0.00,,,0.00,0,Wunderground v.1.15,2013-06-19 10:30:00,
2013-06-19 03:40:00,54.5,44.5,30.04,SW,224,0.0,0.0,69,0.00,,,0.00,0,Wunderground v.1.15,2013-06-19 10:40:00,
2013-06-19 03:50:00,54.5,44.5,30.04,SE,129,0.0,0.0,69,0.00,,,0.00,0,Wunderground v.1.15,2013-06-19 10:50:00,
2013-06-19 04:00:00,54.4,44.4,30.04,NNW,340,0.0,0.0,69,0.00,,,0.00,0,Wunderground v.1.15,2013-06-19 11:00:00,
2013-06-19 04:10:00,54.3,44.3,30.04,SSE,167,0.0,0.0,69,0.00,,,0.00,0,Wunderground v.1.15,2013-06-19 11:10:00,
2013-06-19 04:20:00,54.2,44.2,30.05,West,270,0.0,1.0,69,0.00,,,0.00,0,Wunderground v.1.15,2013-06-19 11:20:00,
2013-06-19 04:30:00,54.2,44.2,30.04,NW,321,0.0,0.0,69,0.00,,,0.00,0,Wunderground v.1.15,2013-06-19 11:30:00,
2013-06-19 04:40:00,54.2,44.6,30.04,SSW,211,0.0,0.0,70,0.00,,,0.00,0,Wunderground v.1.15,2013-06-19 11:40:00,
2013-06-19 04:50:00,54.1,44.5,30.04,NW,309,0.0,0.0,70,0.00,,,0.00,0,Wunderground v.1.15,2013-06-19 11:50:00,
2013-06-19 05:00:00,54.1,44.5,30.04,WSW,237,0.0,0.0,70,0.00,,,0.00,0,Wunderground v.1.15,2013-06-19 12:00:00,
2013-06-19 05:10:00,54.1,44.5,30.04,WSW,237,0.0,0.0,70,0.00,,,0.00,0,Wunderground v.1.15,2013-06-19 12:10:00,
2013-06-19 05:20:00,54.0,44.8,30.05,WSW,237,0.0,0.0,71,0.00,,,0.00,0,Wunderground v.1.15,2013-06-19 12:20:00,
2013-06-19 05:30:00,54.0,44.8,30.05,SW,236,0.0,0.0,71,0.00,,,0.00,0,Wunderground v.1.15,2013-06-19 12:30:00,
2013-06-19 05:40:00,53.9,44.7,30.05,SW,236,0.0,0.0,71,0.00,,,0.00,0,Wunderground v.1.15,2013-06-19 12:40:00,
2013-06-19 05:50:00,53.6,44.4,30.05,SSE,159,1.0,1.0,71,0.00,,,0.00,0,Wunderground v.1.15,2013-06-19 12:50:00,
2013-06-19 06:00:00,53.5,44.7,30.05,SSE,159,0.0,0.0,72,0.00,,,0.00,7,Wunderground v.1.15,2013-06-19 13:00:00,
2013-06-19 06:10:00,53.5,45.1,30.05,SSE,159,0.0,0.0,73,0.00,,,0.00,19,Wunderground v.1.15,2013-06-19 13:10:00,
2013-06-19 06:20:00,53.5,45.1,30.06,SSE,159,0.0,0.0,73,0.00,,,0.00,25,Wunderground v.1.15,2013-06-19 13:20:00,
2013-06-19 06:30:00,53.6,45.5,30.06,SSE,159,0.0,0.0,74,0.00,,,0.00,44,Wunderground v.1.15,2013-06-19 13:30:00,
2013-06-19 06:40:00,53.7,45.6,30.06,SSE,159,0.0,0.0,74,0.00,,,0.00,35,Wunderground v.1.15,2013-06-19 13:40:00,
2013-06-19 06:50:00,54.2,46.4,30.06,SSE,159,0.0,0.0,75,0.00,,,0.00,44,Wunderground v.1.15,2013-06-19 13:50:00,
2013-06-19 07:00:00,55.0,46.9,30.06,SSE,159,0.0,0.0,74,0.00,,,0.00,172,Wunderground v.1.15,2013-06-19 14:00:00,
2013-06-19 07:10:00,55.7,47.5,30.07,SSE,159,0.0,2.0,74,0.00,,,0.00,209,Wunderground v.1.15,2013-06-19 14:10:00,
2013-06-19 07:20:00,56.6,47.7,30.07,SW,214,0.0,0.0,72,0.00,,,0.00,246,Wunderground v.1.15,2013-06-19 14:20:00,
2013-06-19 07:30:00,57.5,48.2,30.07,West,277,0.0,0.0,71,0.00,,,0.00,279,Wunderground v.1.15,2013-06-19 14:30:00,
2013-06-19 07:40:00,58.5,48.4,30.07,West,264,0.0,0.0,69,0.00,,,0.00,308,Wunderground v.1.15,2013-06-19 14:40:00,
2013-06-19 07:50:00,59.0,48.1,30.07,WNW,297,0.0,0.0,67,0.00,,,0.00,341,Wunderground v.1.15,2013-06-19 14:50:00,
2013-06-19 08:00:00,59.9,48.5,30.07,WSW,254,0.0,0.0,66,0.00,,,0.00,374,Wunderground v.1.15,2013-06-19 15:00:00,
2013-06-19 08:10:00,60.7,48.4,30.07,WNW,287,1.0,1.0,64,0.00,,,0.00,404,Wunderground v.1.15,2013-06-19 15:10:00,
2013-06-19 08:20:00,61.2,48.1,30.07,NW,309,1.0,1.0,62,0.00,,,0.00,438,Wunderground v.1.15,2013-06-19 15:20:00,
2013-06-19 08:30:00,62.0,48.4,30.07,WSW,244,0.0,0.0,61,0.00,,,0.00,471,Wunderground v.1.15,2013-06-19 15:30:00,
2013-06-19 08:40:00,62.7,48.6,30.07,ENE,63,1.0,1.0,60,0.00,,,0.00,504,Wunderground v.1.15,2013-06-19 15:40:00,
2013-06-19 08:50:00,63.5,48.9,30.08,NW,320,2.0,2.0,59,0.00,,,0.00,534,Wunderground v.1.15,2013-06-19 15:50:00,
2013-06-19 09:00:00,64.5,48.9,30.07,NW,304,0.0,3.0,57,0.00,,,0.00,563,Wunderground v.1.15,2013-06-19 16:00:00,
2013-06-19 09:10:00,65.4,49.3,30.08,WNW,300,2.0,2.0,56,0.00,,,0.00,594,Wunderground v.1.15,2013-06-19 16:10:00,
2013-06-19 09:20:00,65.9,48.8,30.08,West,269,0.0,0.0,54,0.00,,,0.00,552,Wunderground v.1.15,2013-06-19 16:20:00,
2013-06-19 09:30:00,66.5,48.8,30.08,WNW,290,1.0,1.0,53,0.00,,,0.00,649,Wunderground v.1.15,2013-06-19 16:30:00,
2013-06-19 09:40:00,67.5,48.7,30.08,WNW,291,1.0,1.0,51,0.00,,,0.00,679,Wunderground v.1.15,2013-06-19 16:40:00,
2013-06-19 09:50:00,68.5,48.6,30.08,NW,317,1.0,3.0,49,0.00,,,0.00,707,Wunderground v.1.15,2013-06-19 16:50:00,
2013-06-19 10:00:00,68.9,48.4,30.07,WNW,303,1.0,1.0,48,0.00,,,0.00,738,Wunderground v.1.15,2013-06-19 17:00:00,
2013-06-19 10:10:00,69.2,48.1,30.07,North,355,1.0,1.0,47,0.00,,,0.00,763,Wunderground v.1.15,2013-06-19 17:10:00,
2013-06-19 10:20:00,70.4,48.0,30.07,WSW,251,2.0,2.0,45,0.00,,,0.00,784,Wunderground v.1.15,2013-06-19 17:20:00,
2013-06-19 10:30:00,71.8,48.1,30.08,NNW,347,1.0,1.0,43,0.00,,,0.00,807,Wunderground v.1.15,2013-06-19 17:30:00,
2013-06-19 10:40:00,71.8,48.1,30.08,WNW,295,3.0,3.0,43,0.00,,,0.00,835,Wunderground v.1.15,2013-06-19 17:40:00,
2013-06-19 10:50:00,72.5,48.1,30.07,NNW,344,2.0,2.0,42,0.00,,,0.00,853,Wunderground v.1.15,2013-06-19 17:50:00,
2013-06-19 11:00:00,73.0,48.5,30.07,West,259,2.0,5.0,42,0.00,,,0.00,863,Wunderground v.1.15,2013-06-19 18:00:00,
2013-06-19 11:10:00,73.6,49.7,30.07,West,281,2.0,2.0,43,0.00,,,0.00,886,Wunderground v.1.15,2013-06-19 18:10:00,
2013-06-19 11:20:00,72.1,48.4,30.07,WNW,284,3.0,3.0,43,0.00,,,0.00,902,Wunderground v.1.15,2013-06-19 18:20:00,
2013-06-19 11:30:00,72.4,48.6,30.07,West,270,2.0,5.0,43,0.00,,,0.00,919,Wunderground v.1.15,2013-06-19 18:30:00,
2013-06-19 11:40:00,73.0,48.5,30.07,NNW,342,3.0,4.0,42,0.00,,,0.00,933,Wunderground v.1.15,2013-06-19 18:40:00,
2013-06-19 11:50:00,71.9,46.9,30.07,West,276,2.0,3.0,41,0.00,,,0.00,946,Wunderground v.1.15,2013-06-19 18:50:00,
2013-06-19 12:00:00,73.2,48.1,30.07,NNE,19,3.0,4.0,41,0.00,,,0.00,953,Wunderground v.1.15,2013-06-19 19:00:00,
2013-06-19 12:10:00,74.1,46.9,30.07,West,275,3.0,3.0,38,0.00,,,0.00,967,Wunderground v.1.15,2013-06-19 19:10:00,
2013-06-19 12:20:00,75.3,47.9,30.07,WNW,300,3.0,3.0,38,0.00,,,0.00,969,Wunderground v.1.15,2013-06-19 19:20:00,
2013-06-19 12:30:00,74.7,47.4,30.07,West,274,3.0,4.0,38,0.00,,,0.00,981,Wunderground v.1.15,2013-06-19 19:30:00,
2013-06-19 12:40:00,74.9,46.1,30.07,WNW,286,3.0,3.0,36,0.00,,,0.00,986,Wunderground v.1.15,2013-06-19 19:40:00,
2013-06-19 12:50:00,76.2,46.5,30.06,North,351,2.0,2.0,35,0.00,,,0.00,986,Wunderground v.1.15,2013-06-19 19:50:00,
2013-06-19 13:00:00,75.7,47.6,30.06,WNW,287,3.0,3.0,37,0.00,,,0.00,990,Wunderground v.1.15,2013-06-19 20:00:00,
2013-06-19 13:10:00,77.1,47.3,30.06,North,5,2.0,7.0,35,0.00,,,0.00,988,Wunderground v.1.15,2013-06-19 20:10:00,
2013-06-19 13:20:00,76.3,46.6,30.05,West,269,5.0,6.0,35,0.00,,,0.00,984,Wunderground v.1.15,2013-06-19 20:20:00,
2013-06-19 13:30:00,76.4,46.7,30.06,WNW,303,3.0,3.0,35,0.00,,,0.00,984,Wunderground v.1.15,2013-06-19 20:30:00,
2013-06-19 13:40:00,77.8,47.9,30.05,North,350,1.0,1.0,35,0.00,,,0.00,979,Wunderground v.1.15,2013-06-19 20:40:00,
2013-06-19 13:50:00,77.5,48.4,30.05,North,355,1.0,1.0,36,0.00,,,0.00,977,Wunderground v.1.15,2013-06-19 20:50:00,
2013-06-19 14:00:00,79.4,48.6,30.05,WNW,300,0.0,2.0,34,0.00,,,0.00,972,Wunderground v.1.15,2013-06-19 21:00:00,
2013-06-19 14:10:00,78.9,48.9,30.05,WNW,302,1.0,1.0,35,0.00,,,0.00,963,Wunderground v.1.15,2013-06-19 21:10:00,
2013-06-19 14:20:00,78.6,48.7,30.04,NNW,334,0.0,0.0,35,0.00,,,0.00,954,Wunderground v.1.15,2013-06-19 21:20:00,
2013-06-19 14:30:00,79.5,47.9,30.05,NNE,28,0.0,6.0,33,0.00,,,0.00,951,Wunderground v.1.15,2013-06-19 21:30:00,
2013-06-19 14:40:00,78.7,48.0,30.04,SE,126,1.0,1.0,34,0.00,,,0.00,939,Wunderground v.1.15,2013-06-19 21:40:00,
2013-06-19 14:50:00,79.3,48.5,30.04,WNW,294,1.0,1.0,34,0.00,,,0.00,925,Wunderground v.1.15,2013-06-19 21:50:00,
2013-06-19 15:00:00,78.2,48.3,30.04,NNE,16,1.0,1.0,35,0.00,,,0.00,898,Wunderground v.1.15,2013-06-19 22:00:00,
2013-06-19 15:10:00,79.2,47.6,30.04,SW,219,1.0,1.0,33,0.00,,,0.00,889,Wunderground v.1.15,2013-06-19 22:10:00,
2013-06-19 15:20:00,80.1,48.4,30.04,WNW,300,0.0,0.0,33,0.00,,,0.00,870,Wunderground v.1.15,2013-06-19 22:20:00,
2013-06-19 15:30:00,81.0,47.5,30.04,WNW,290,1.0,2.0,31,0.00,,,0.00,856,Wunderground v.1.15,2013-06-19 22:30:00,
2013-06-19 15:40:00,81.6,48.0,30.04,West,265,1.0,1.0,31,0.00,,,0.00,837,Wunderground v.1.15,2013-06-19 22:40:00,
2013-06-19 15:50:00,81.8,48.2,30.03,SSW,213,1.0,2.0,31,0.00,,,0.00,812,Wunderground v.1.15,2013-06-19 22:50:00,
2013-06-19 16:00:00,81.7,48.1,30.03,West,281,1.0,2.0,31,0.00,,,0.00,791,Wunderground v.1.15,2013-06-19 23:00:00,
2013-06-19 16:10:00,81.6,48.0,30.03,West,267,1.0,3.0,31,0.00,,,0.00,763,Wunderground v.1.15,2013-06-19 23:10:00,
2013-06-19 16:20:00,80.2,47.7,30.03,NNE,12,1.0,1.0,32,0.00,,,0.00,735,Wunderground v.1.15,2013-06-19 23:20:00,
2013-06-19 16:30:00,79.9,48.2,30.03,WSW,250,1.0,3.0,33,0.00,,,0.00,629,Wunderground v.1.15,2013-06-19 23:30:00,
2013-06-19 16:40:00,78.9,48.9,30.03,North,5,1.0,1.0,35,0.00,,,0.00,680,Wunderground v.1.15,2013-06-19 23:40:00,
2013-06-19 16:50:00,78.9,48.9,30.02,NNE,22,1.0,1.0,35,0.00,,,0.00,652,Wunderground v.1.15,2013-06-19 23:50:00,
2013-06-19 17:00:00,78.8,48.8,30.03,NE,52,1.0,1.0,35,0.00,,,0.00,621,Wunderground v.1.15,2013-06-20 00:00:00,
2013-06-19 17:10:00,78.7,48.7,30.02,North,5,0.0,0.0,35,0.00,,,0.00,589,Wunderground v.1.15,2013-06-20 00:10:00,
2013-06-19 17:20:00,78.4,48.5,30.02,NW,322,1.0,1.0,35,0.00,,,0.00,454,Wunderground v.1.15,2013-06-20 00:20:00,
2013-06-19 17:30:00,78.3,47.6,30.02,SW,234,0.0,0.0,34,0.00,,,0.00,35,Wunderground v.1.15,2013-06-20 00:30:00,
2013-06-19 17:40:00,77.6,47.8,30.02,WSW,244,0.0,0.0,35,0.00,,,0.00,33,Wunderground v.1.15,2013-06-20 00:40:00,
2013-06-19 17:50:00,77.0,47.2,30.02,WNW,301,0.0,0.0,35,0.00,,,0.00,33,Wunderground v.1.15,2013-06-20 00:50:00,
2013-06-19 18:00:00,76.5,47.6,30.02,West,262,1.0,1.0,36,0.00,,,0.00,32,Wunderground v.1.15,2013-06-20 01:00:00,
2013-06-19 18:10:00,75.8,47.7,30.02,East,81,0.0,0.0,37,0.00,,,0.00,30,Wunderground v.1.15,2013-06-20 01:10:00,
2013-06-19 18:20:00,75.7,47.6,30.02,WSW,237,0.0,0.0,37,0.00,,,0.00,30,Wunderground v.1.15,2013-06-20 01:20:00,
2013-06-19 18:30:00,75.3,47.9,30.02,West,271,0.0,0.0,38,0.00,,,0.00,26,Wunderground v.1.15,2013-06-20 01:30:00,
2013-06-19 18:40:00,75.0,47.7,30.02,West,261,0.0,0.0,38,0.00,,,0.00,25,Wunderground v.1.15,2013-06-20 01:40:00,
2013-06-19 18:50:00,74.7,48.1,30.02,WNW,286,0.0,0.0,39,0.00,,,0.00,25,Wunderground v.1.15,2013-06-20 01:50:00,
2013-06-19 19:00:00,74.2,47.6,30.02,SW,232,0.0,0.0,39,0.00,,,0.00,23,Wunderground v.1.15,2013-06-20 02:00:00,
2013-06-19 19:10:00,73.9,47.4,30.02,WSW,238,0.0,1.0,39,0.00,,,0.00,21,Wunderground v.1.15,2013-06-20 02:10:00,
2013-06-19 19:20:00,73.5,47.7,30.02,West,263,0.0,0.0,40,0.00,,,0.00,19,Wunderground v.1.15,2013-06-20 02:20:00,
2013-06-19 19:30:00,73.1,48.0,30.02,WNW,282,0.0,0.0,41,0.00,,,0.00,18,Wunderground v.1.15,2013-06-20 02:30:00,
2013-06-19 19:40:00,72.7,48.3,30.02,West,271,0.0,0.0,42,0.00,,,0.00,16,Wunderground v.1.15,2013-06-20 02:40:00,
2013-06-19 19:50:00,72.2,48.5,30.03,NNW,348,0.0,0.0,43,0.00,,,0.00,14,Wunderground v.1.15,2013-06-20 02:50:00,
2013-06-19 20:00:00,71.6,47.9,30.03,NNW,346,0.0,0.0,43,0.00,,,0.00,12,Wunderground v.1.15,2013-06-20 03:00:00,
2013-06-19 20:10:00,71.1,48.7,30.03,ESE,110,0.0,0.0,45,0.00,,,0.00,9,Wunderground v.1.15,2013-06-20 03:10:00,
2013-06-19 20:20:00,70.0,48.8,30.03,ENE,68,0.0,0.0,47,0.00,,,0.00,7,Wunderground v.1.15,2013-06-20 03:20:00,
2013-06-19 20:30:00,69.3,48.8,30.03,ENE,68,0.0,0.0,48,0.00,,,0.00,0,Wunderground v.1.15,2013-06-20 03:30:00,
2013-06-19 20:40:00,68.4,49.0,30.04,East,92,0.0,0.0,50,0.00,,,0.00,0,Wunderground v.1.15,2013-06-20 03:40:00,
2013-06-19 20:50:00,67.5,48.7,30.03,SSE,149,0.0,0.0,51,0.00,,,0.00,0,Wunderground v.1.15,2013-06-20 03:50:00,
2013-06-19 21:00:00,66.9,48.7,30.03,SSE,147,0.0,0.0,52,0.00,,,0.00,0,Wunderground v.1.15,2013-06-20 04:00:00,
2013-06-19 21:10:00,66.0,47.9,30.03,SE,146,0.0,0.0,52,0.00,,,0.00,0,Wunderground v.1.15,2013-06-20 04:10:00,
2013-06-19 21:20:00,65.4,46.3,30.03,WNW,286,0.0,0.0,50,0.00,,,0.00,0,Wunderground v.1.15,2013-06-20 04:20:00,
2013-06-19 21:30:00,64.9,45.8,30.04,WNW,286,0.0,0.0,50,0.00,,,0.00,0,Wunderground v.1.15,2013-06-20 04:30:00,
2013-06-19 21:40:00,64.5,45.4,30.04,WNW,286,0.0,0.0,50,0.00,,,0.00,0,Wunderground v.1.15,2013-06-20 04:40:00,
2013-06-19 21:50:00,63.7,45.7,30.04,WNW,286,0.0,0.0,52,0.00,,,0.00,0,Wunderground v.1.15,2013-06-20 04:50:00,
2013-06-19 22:00:00,62.9,46.5,30.05,SSE,148,2.0,2.0,55,0.00,,,0.00,0,Wunderground v.1.15,2013-06-20 05:00:00,
2013-06-19 22:10:00,62.6,48.1,30.04,SSE,158,1.0,1.0,59,0.00,,,0.00,0,Wunderground v.1.15,2013-06-20 05:10:00,
2013-06-19 22:20:00,62.3,48.2,30.05,SE,125,0.0,3.0,60,0.00,,,0.00,0,Wunderground v.1.15,2013-06-20 05:20:00,
2013-06-19 22:30:00,61.8,48.6,30.05,SE,132,1.0,1.0,62,0.00,,,0.00,0,Wunderground v.1.15,2013-06-20 05:30:00,
2013-06-19 22:40:00,61.4,48.7,30.05,SE,136,1.0,1.0,63,0.00,,,0.00,0,Wunderground v.1.15,2013-06-20 05:40:00,
2013-06-19 22:50:00,61.1,48.0,30.05,SE,143,1.0,1.0,62,0.00,,,0.00,0,Wunderground v.1.15,2013-06-20 05:50:00,
2013-06-19 23:00:00,60.9,48.2,30.04,SE,144,0.0,0.0,63,0.00,,,0.00,0,Wunderground v.1.15,2013-06-20 06:00:00,
2013-06-19 23:10:00,60.6,47.5,30.04,SE,144,0.0,0.0,62,0.00,,,0.00,0,Wunderground v.1.15,2013-06-20 06:10:00,
2013-06-19 23:20:00,60.3,47.2,30.04,SE,144,0.0,0.0,62,0.00,,,0.00,0,Wunderground v.1.15,2013-06-20 06:20:00,
2013-06-19 23:30:00,60.2,47.6,30.04,SE,144,1.0,2.0,63,0.00,,,0.00,0,Wunderground v.1.15,2013-06-20 06:30:00,
2013-06-19 23:40:00,60.0,47.4,30.04,SE,144,0.0,0.0,63,0.00,,,0.00,0,Wunderground v.1.15,2013-06-20 06:40:00,
2013-06-19 23:50:00,59.7,47.1,30.04,SE,144,0.0,0.0,63,0.00,,,0.00,0,Wunderground v.1.15,2013-06-20 06:50:00,